Time;durP1;ratioP1;P1;durP2;ratioP2;P2;SDS_P1;SDS_P2;PMS_P1;PMS_P2;Temp;Humidity;BMP_temperature;BMP_pressure;BME280_temperature;BME280_humidity;BME280_pressure;Samples;Min_cycle;Max_cycle;Signal;HPM_P1;HPM_P2
2022/03/12 00:00:26;;;;;;;5.57;4.83;;;11.50;33.00;;;;;;6015608;23;20440;-82
2022/03/12 00:02:57;;;;;;;5.07;4.57;;;11.40;33.20;;;;;;5991448;23;20474;-83
2022/03/12 00:05:25;;;;;;;7.10;5.50;;;11.30;33.30;;;;;;5989647;23;20407;-82
2022/03/12 00:07:52;;;;;;;6.13;5.10;;;11.40;33.40;;;;;;6014733;23;20740;-82
2022/03/12 00:10:22;;;;;;;6.97;6.27;;;11.40;33.80;;;;;;5989791;23;20415;-83
2022/03/12 00:12:50;;;;;;;6.67;5.43;;;11.40;33.30;;;;;;6013673;23;20895;-83
2022/03/12 00:15:24;;;;;;;9.03;5.60;;;11.50;33.30;;;;;;5989237;23;20447;-85
2022/03/12 00:17:56;;;;;;;5.67;5.07;;;11.30;33.70;;;;;;6014846;23;20449;-83
2022/03/12 00:20:27;;;;;;;8.00;5.60;;;11.50;33.60;;;;;;5997190;23;20415;-83
2022/03/12 00:22:56;;;;;;;10.57;5.93;;;11.40;33.60;;;;;;6028252;23;20464;-84
2022/03/12 00:25:24;;;;;;;7.27;4.93;;;11.50;33.80;;;;;;5991685;23;20998;-83
2022/03/12 00:27:51;;;;;;;6.13;5.53;;;11.30;33.80;;;;;;6015463;23;20419;-82
2022/03/12 00:30:24;;;;;;;7.20;5.60;;;11.30;34.20;;;;;;5991577;23;20788;-83
2022/03/12 00:32:53;;;;;;;6.17;5.53;;;11.40;34.30;;;;;;5989847;23;20411;-82
2022/03/12 00:35:23;;;;;;;6.83;5.33;;;11.10;34.10;;;;;;6015330;23;20510;-83
2022/03/12 00:37:49;;;;;;;5.93;5.43;;;11.30;34.10;;;;;;6015292;23;20482;-81
2022/03/12 00:40:20;;;;;;;7.67;6.57;;;11.20;34.00;;;;;;6015928;23;20414;-84
2022/03/12 00:42:46;;;;;;;7.20;5.23;;;11.20;34.80;;;;;;6018136;23;20408;-84
2022/03/12 00:45:17;;;;;;;9.63;6.60;;;11.20;34.30;;;;;;6015277;23;20453;-83
2022/03/12 00:47:44;;;;;;;7.03;5.17;;;11.40;34.50;;;;;;5992837;23;20423;-84
2022/03/12 00:50:13;;;;;;;6.57;5.97;;;11.20;34.40;;;;;;5991472;23;20910;-84
2022/03/12 00:52:40;;;;;;;7.80;5.57;;;11.10;34.60;;;;;;6016794;23;20410;-83
2022/03/12 00:55:08;;;;;;;8.30;5.60;;;10.90;35.00;;;;;;6017783;23;20403;-83
2022/03/12 00:57:34;;;;;;;8.03;6.13;;;11.10;35.10;;;;;;6016393;23;20447;-83
2022/03/12 01:00:03;;;;;;;6.93;5.40;;;11.10;34.80;;;;;;6015074;23;20408;-83
2022/03/12 01:02:29;;;;;;;7.73;5.30;;;11.10;34.90;;;;;;6015170;23;20416;-84
2022/03/12 01:04:56;;;;;;;6.30;5.70;;;11.10;34.80;;;;;;6015283;23;21097;-83
2022/03/12 01:07:23;;;;;;;6.60;5.83;;;11.30;35.20;;;;;;6013676;23;20435;-83
2022/03/12 01:09:50;;;;;;;7.30;6.27;;;11.30;34.80;;;;;;6013911;23;20490;-83
2022/03/12 01:12:17;;;;;;;7.20;6.20;;;11.40;34.90;;;;;;6015249;23;20416;-83
2022/03/12 01:14:44;;;;;;;7.30;5.43;;;11.30;34.60;;;;;;6014300;23;20438;-84
2022/03/12 01:17:10;;;;;;;9.77;5.90;;;11.10;35.00;;;;;;5987247;23;20447;-83
2022/03/12 01:19:38;;;;;;;8.20;6.27;;;11.00;35.40;;;;;;5988664;23;20444;-83
2022/03/12 01:22:05;;;;;;;9.60;6.03;;;11.00;35.50;;;;;;6013598;23;20392;-83
2022/03/12 01:24:34;;;;;;;6.90;6.20;;;10.90;35.40;;;;;;5987996;23;20479;-84
2022/03/12 01:27:00;;;;;;;9.00;6.00;;;10.90;35.60;;;;;;6013384;23;20439;-83
2022/03/12 01:29:27;;;;;;;8.80;5.70;;;11.20;35.50;;;;;;6012236;23;20856;-82
2022/03/12 01:31:54;;;;;;;6.33;5.50;;;11.20;35.40;;;;;;6013666;23;20931;-82
2022/03/12 01:34:21;;;;;;;8.60;7.70;;;11.10;35.60;;;;;;5988315;23;20478;-84
2022/03/12 01:36:47;;;;;;;6.97;6.30;;;11.20;35.40;;;;;;6013072;23;20450;-83
2022/03/12 01:39:14;;;;;;;8.30;6.17;;;10.90;35.60;;;;;;6011970;23;20454;-83
2022/03/12 01:41:42;;;;;;;9.00;6.30;;;11.00;36.00;;;;;;6011949;23;20422;-83
2022/03/12 01:44:12;;;;;;;6.70;5.10;;;11.00;35.90;;;;;;5989126;23;20963;-84
2022/03/12 01:46:47;;;;;;;9.10;6.20;;;10.80;36.40;;;;;;6012845;23;20431;-83
2022/03/12 01:49:17;;;;;;;8.00;5.90;;;10.70;36.30;;;;;;5990270;23;20407;-82
2022/03/12 01:51:46;;;;;;;7.67;5.60;;;10.80;36.50;;;;;;6014152;23;20400;-82
2022/03/12 01:54:18;;;;;;;6.73;6.13;;;11.00;36.30;;;;;;6032214;23;20416;-82
2022/03/12 01:56:45;;;;;;;7.37;5.90;;;11.10;36.10;;;;;;5989487;23;20459;-84
2022/03/12 01:59:12;;;;;;;6.87;6.17;;;11.00;36.10;;;;;;6020194;23;20447;-82
2022/03/12 02:01:39;;;;;;;6.73;5.70;;;11.10;36.30;;;;;;5989959;23;20411;-82
2022/03/12 02:04:11;;;;;;;8.20;6.40;;;10.90;36.30;;;;;;6011944;23;20475;-83
2022/03/12 02:06:43;;;;;;;7.43;6.20;;;11.10;36.30;;;;;;5989734;23;20460;-85
2022/03/12 02:09:14;;;;;;;8.33;5.97;;;10.90;36.30;;;;;;5987688;23;20931;-83
2022/03/12 02:11:43;;;;;;;8.83;6.27;;;10.70;37.20;;;;;;6011711;23;20430;-84
2022/03/12 02:14:11;;;;;;;8.83;6.03;;;10.90;36.70;;;;;;6011104;23;20430;-81
2022/03/12 02:17:00;;;;;;;8.30;6.10;;;10.90;36.50;;;;;;6014635;23;20814;-81
2022/03/12 02:19:29;;;;;;;8.23;5.73;;;10.90;36.70;;;;;;6011782;23;20450;-82
2022/03/12 02:22:08;;;;;;;11.10;6.80;;;10.70;36.70;;;;;;6014315;23;20418;-80
2022/03/12 02:24:36;;;;;;;7.40;6.20;;;11.00;36.70;;;;;;6013359;23;20403;-83
2022/03/12 02:27:05;;;;;;;9.50;5.73;;;11.00;36.60;;;;;;6013887;23;20431;-81
2022/03/12 02:29:33;;;;;;;6.90;6.20;;;11.00;36.70;;;;;;5993154;23;20411;-80
2022/03/12 02:32:03;;;;;;;9.40;7.30;;;11.20;36.60;;;;;;6004180;23;20413;-84
2022/03/12 02:34:41;;;;;;;6.83;6.07;;;10.90;36.30;;;;;;6007388;23;20423;-85
2022/03/12 02:37:08;;;;;;;7.03;6.03;;;10.90;36.80;;;;;;6001807;23;20450;-85
2022/03/12 02:39:39;;;;;;;5.97;5.37;;;10.90;36.90;;;;;;5997933;23;20991;-85
2022/03/12 02:42:07;;;;;;;8.07;6.13;;;10.60;37.30;;;;;;6000626;23;20384;-84
2022/03/12 02:44:35;;;;;;;8.97;6.33;;;10.80;37.40;;;;;;5994542;23;20418;-83
2022/03/12 02:47:14;;;;;;;6.53;5.77;;;10.70;37.60;;;;;;5990656;23;20982;-82
2022/03/12 02:49:53;;;;;;;7.73;6.10;;;10.80;37.80;;;;;;5987465;23;20411;-83
2022/03/12 02:52:21;;;;;;;9.10;6.33;;;10.60;37.70;;;;;;6015791;23;20414;-83
2022/03/12 02:54:50;;;;;;;7.87;6.30;;;10.40;38.00;;;;;;5990855;23;20498;-83
2022/03/12 02:57:19;;;;;;;7.80;6.87;;;10.80;38.10;;;;;;5990083;23;20431;-83
2022/03/12 02:59:51;;;;;;;6.97;6.03;;;10.90;38.00;;;;;;5989623;23;21308;-82
2022/03/12 03:02:25;;;;;;;8.50;6.60;;;10.90;38.10;;;;;;5989939;23;20452;-83
2022/03/12 03:04:52;;;;;;;6.97;6.27;;;10.90;37.90;;;;;;5990220;23;20459;-82
2022/03/12 03:07:18;;;;;;;8.20;6.53;;;10.80;38.00;;;;;;6013299;23;20427;-82
2022/03/12 03:09:46;;;;;;;6.33;5.77;;;10.80;38.00;;;;;;6013603;23;20420;-81
2022/03/12 03:12:13;;;;;;;8.97;7.37;;;10.80;38.10;;;;;;5986931;23;20491;-82
2022/03/12 03:14:46;;;;;;;7.50;6.33;;;10.60;37.80;;;;;;5984339;23;20759;-82
2022/03/12 03:17:12;;;;;;;6.47;5.87;;;10.40;38.60;;;;;;5983526;23;20458;-82
2022/03/12 03:19:40;;;;;;;7.23;6.53;;;10.20;38.80;;;;;;5984022;23;20955;-82
2022/03/12 03:22:07;;;;;;;8.10;7.30;;;10.20;38.70;;;;;;6008987;23;20921;-81
2022/03/12 03:24:35;;;;;;;8.27;7.30;;;10.50;38.90;;;;;;6010692;23;20404;-82
2022/03/12 03:27:02;;;;;;;9.10;6.53;;;10.50;39.00;;;;;;6012888;23;20431;-84
2022/03/12 03:29:31;;;;;;;7.10;6.40;;;10.60;39.90;;;;;;5985784;23;20421;-82
2022/03/12 03:32:02;;;;;;;6.60;5.63;;;10.80;39.60;;;;;;6010901;23;20415;-82
2022/03/12 03:34:32;;;;;;;6.97;6.10;;;10.80;39.60;;;;;;5984573;23;20423;-83
2022/03/12 03:36:59;;;;;;;9.30;7.30;;;10.80;40.10;;;;;;6009451;23;20439;-84
2022/03/12 03:39:26;;;;;;;8.20;7.20;;;10.80;41.00;;;;;;6009574;23;20458;-83
2022/03/12 03:41:53;;;;;;;11.07;7.40;;;10.70;41.10;;;;;;5984455;23;20421;-82
2022/03/12 03:44:27;;;;;;;6.80;5.67;;;10.70;41.10;;;;;;6008492;23;20416;-82
2022/03/12 03:46:54;;;;;;;9.50;6.17;;;10.70;41.30;;;;;;6009657;23;20429;-83
2022/03/12 03:49:21;;;;;;;6.90;6.20;;;10.60;41.10;;;;;;5982469;23;20441;-83
2022/03/12 03:51:48;;;;;;;7.30;6.30;;;10.30;41.10;;;;;;5984237;23;20423;-83
2022/03/12 03:54:15;;;;;;;10.07;6.30;;;10.20;41.00;;;;;;6009979;23;20419;-85
2022/03/12 03:56:43;;;;;;;6.53;5.53;;;10.10;41.10;;;;;;6009937;23;20514;-83
2022/03/12 03:59:10;;;;;;;8.10;5.93;;;10.10;41.50;;;;;;5984605;23;20453;-83
2022/03/12 04:01:40;;;;;;;11.60;6.83;;;10.40;41.20;;;;;;5987199;23;20491;-84
2022/03/12 04:04:13;;;;;;;9.07;5.93;;;10.40;41.10;;;;;;6012476;23;20404;-83
2022/03/12 04:06:40;;;;;;;8.37;5.60;;;10.40;40.90;;;;;;5991388;23;20750;-86
2022/03/12 04:09:10;;;;;;;7.77;5.87;;;10.30;40.80;;;;;;5987193;23;20931;-83
2022/03/12 04:11:38;;;;;;;9.23;6.83;;;10.30;40.50;;;;;;5988360;23;20479;-84
2022/03/12 04:14:05;;;;;;;6.87;6.17;;;10.40;40.20;;;;;;5987384;23;20419;-84
2022/03/12 04:16:33;;;;;;;8.30;7.10;;;10.30;40.30;;;;;;6012580;23;20431;-85
2022/03/12 04:19:05;;;;;;;8.17;6.33;;;10.10;40.50;;;;;;5987018;23;20471;-84
2022/03/12 04:21:35;;;;;;;7.77;6.30;;;10.20;40.60;;;;;;6013184;23;20472;-84
2022/03/12 04:24:02;;;;;;;8.40;6.50;;;10.40;40.40;;;;;;6015316;23;20415;-85
2022/03/12 04:26:33;;;;;;;8.67;6.73;;;10.40;41.00;;;;;;5990622;23;20537;-85
2022/03/12 04:29:01;;;;;;;7.67;6.00;;;10.20;40.20;;;;;;6018164;23;20435;-85
2022/03/12 04:31:28;;;;;;;7.70;6.90;;;10.20;40.60;;;;;;6006555;23;20422;-86
2022/03/12 04:33:59;;;;;;;6.90;5.80;;;10.30;40.50;;;;;;6020215;23;20446;-84
2022/03/12 04:36:28;;;;;;;9.83;6.50;;;10.20;40.40;;;;;;6014343;23;20444;-83
2022/03/12 04:38:55;;;;;;;10.43;6.70;;;10.30;40.90;;;;;;6013604;23;20443;-84
2022/03/12 04:41:22;;;;;;;7.57;6.77;;;10.40;40.90;;;;;;6013697;23;20962;-84
2022/03/12 04:43:50;;;;;;;10.07;7.03;;;10.60;40.90;;;;;;5990352;23;20530;-84
2022/03/12 04:46:17;;;;;;;9.10;6.60;;;10.50;40.70;;;;;;6013450;23;20427;-84
2022/03/12 04:48:52;;;;;;;8.23;6.00;;;10.60;41.00;;;;;;5993910;23;20423;-84
2022/03/12 04:51:32;;;;;;;7.10;6.40;;;10.70;40.60;;;;;;5992580;23;20415;-84
2022/03/12 04:54:01;;;;;;;8.97;6.23;;;10.60;40.50;;;;;;6016721;23;20452;-84
2022/03/12 04:56:29;;;;;;;10.03;6.60;;;10.50;40.70;;;;;;6019188;23;20431;-85
2022/03/12 04:58:57;;;;;;;7.60;5.93;;;10.30;40.70;;;;;;6003308;23;20458;-83
2022/03/12 05:01:25;;;;;;;8.23;6.57;;;10.40;40.70;;;;;;5997383;23;20399;-83
2022/03/12 05:03:52;;;;;;;8.93;6.77;;;10.40;40.80;;;;;;6023463;23;20415;-84
2022/03/12 05:06:22;;;;;;;7.50;6.10;;;10.20;40.70;;;;;;5998268;23;20431;-84
2022/03/12 05:08:49;;;;;;;9.80;6.97;;;10.10;41.40;;;;;;5997436;23;20434;-85
2022/03/12 05:11:17;;;;;;;7.50;6.40;;;10.20;41.80;;;;;;6008676;23;20462;-85
2022/03/12 05:13:53;;;;;;;8.30;6.53;;;10.20;41.50;;;;;;6035937;23;20398;-84
2022/03/12 05:16:23;;;;;;;8.07;6.90;;;10.00;41.70;;;;;;6037352;23;20424;-86
2022/03/12 05:18:53;;;;;;;7.20;6.40;;;9.90;42.80;;;;;;6036454;23;20480;-85
2022/03/12 05:21:23;;;;;;;10.07;6.60;;;10.10;42.40;;;;;;6037152;23;20410;-84
2022/03/12 05:23:53;;;;;;;8.93;6.97;;;10.30;42.30;;;;;;6014422;23;20403;-85
2022/03/12 05:26:23;;;;;;;9.33;7.60;;;10.30;42.20;;;;;;6011950;23;20424;-86
2022/03/12 05:28:53;;;;;;;9.57;6.97;;;10.20;42.20;;;;;;6011582;23;20419;-85
2022/03/12 05:31:24;;;;;;;7.00;5.70;;;10.00;42.40;;;;;;6028300;23;20408;-84
2022/03/12 05:33:54;;;;;;;9.57;6.40;;;10.20;42.70;;;;;;6007015;23;20400;-84
2022/03/12 05:36:24;;;;;;;8.73;6.73;;;10.10;42.80;;;;;;6020491;23;20427;-85
2022/03/12 05:38:54;;;;;;;8.90;7.17;;;10.00;42.70;;;;;;5991647;23;20447;-83
2022/03/12 05:41:26;;;;;;;7.40;6.43;;;9.90;44.10;;;;;;6014133;23;20442;-83
2022/03/12 05:43:56;;;;;;;10.13;6.40;;;10.10;43.40;;;;;;5991066;23;20447;-83
2022/03/12 05:46:35;;;;;;;7.87;7.10;;;10.10;43.30;;;;;;6012380;23;20431;-84
2022/03/12 05:49:08;;;;;;;10.30;5.73;;;10.00;43.80;;;;;;6017832;23;20993;-84
2022/03/12 05:51:44;;;;;;;7.83;7.03;;;10.10;44.10;;;;;;6017178;23;20407;-83
2022/03/12 05:54:15;;;;;;;8.30;6.87;;;10.10;44.40;;;;;;5991641;23;20476;-84
2022/03/12 05:56:48;;;;;;;8.07;6.90;;;10.20;44.60;;;;;;6016014;23;20439;-83
2022/03/12 05:59:19;;;;;;;11.10;7.90;;;10.20;44.80;;;;;;5992128;23;20479;-85
2022/03/12 06:01:51;;;;;;;9.47;6.10;;;10.20;45.30;;;;;;5992109;23;20971;-84
2022/03/12 06:04:25;;;;;;;7.37;6.60;;;10.20;45.70;;;;;;5990648;23;20423;-84
2022/03/12 06:06:59;;;;;;;8.53;6.70;;;10.20;45.80;;;;;;5992613;23;20526;-83
2022/03/12 06:09:29;;;;;;;7.93;6.90;;;10.10;46.10;;;;;;5990685;23;20487;-84
2022/03/12 06:12:01;;;;;;;7.73;6.67;;;10.10;46.50;;;;;;5994692;23;20794;-85
2022/03/12 06:14:36;;;;;;;8.37;6.43;;;10.10;46.80;;;;;;6017908;23;20459;-83
2022/03/12 06:17:13;;;;;;;7.70;6.10;;;10.00;47.20;;;;;;6019187;23;20435;-84
2022/03/12 06:19:43;;;;;;;7.07;5.60;;;10.10;47.60;;;;;;6016380;23;20435;-84
2022/03/12 06:22:13;;;;;;;6.13;5.40;;;10.00;47.50;;;;;;6014619;23;20415;-84
2022/03/12 06:24:46;;;;;;;8.20;6.73;;;10.10;47.90;;;;;;6020922;23;20440;-84
2022/03/12 06:27:20;;;;;;;8.83;7.27;;;10.00;48.00;;;;;;6025606;23;20431;-83
2022/03/12 06:29:59;;;;;;;8.77;6.80;;;10.20;48.30;;;;;;6024955;23;20411;-85
2022/03/12 06:32:31;;;;;;;7.00;6.27;;;10.10;48.10;;;;;;6000339;23;20415;-85
2022/03/12 06:35:01;;;;;;;8.93;6.20;;;10.20;48.40;;;;;;5997973;23;20414;-83
2022/03/12 06:37:29;;;;;;;8.50;6.23;;;10.10;48.60;;;;;;6004149;23;20443;-84
2022/03/12 06:39:59;;;;;;;7.60;6.80;;;10.10;48.80;;;;;;5997471;23;20440;-85
2022/03/12 06:42:33;;;;;;;11.90;7.33;;;10.30;48.90;;;;;;6021168;23;20415;-84
2022/03/12 06:45:04;;;;;;;7.53;6.67;;;10.50;48.80;;;;;;6019986;23;20727;-83
2022/03/12 06:47:33;;;;;;;7.83;6.67;;;10.50;48.70;;;;;;6018918;23;20431;-85
2022/03/12 06:50:06;;;;;;;7.70;4.80;;;10.40;49.20;;;;;;5995505;23;20497;-83
2022/03/12 06:52:34;;;;;;;9.80;6.63;;;10.60;49.10;;;;;;5995148;23;20411;-85
2022/03/12 06:55:02;;;;;;;11.10;7.20;;;10.70;49.10;;;;;;5995477;23;20419;-83
2022/03/12 06:57:30;;;;;;;8.93;6.67;;;10.80;49.30;;;;;;5996376;23;20435;-84
2022/03/12 06:59:58;;;;;;;9.70;7.43;;;10.80;49.50;;;;;;6016939;23;20784;-84
2022/03/12 07:02:26;;;;;;;7.23;6.30;;;10.80;49.80;;;;;;6019663;23;20415;-84
2022/03/12 07:05:02;;;;;;;10.40;7.70;;;10.90;49.70;;;;;;5972695;23;21154;-84
2022/03/12 07:07:29;;;;;;;7.80;6.27;;;10.90;49.80;;;;;;6017061;23;20431;-84
2022/03/12 07:09:57;;;;;;;8.33;6.43;;;11.00;49.80;;;;;;5993409;23;20464;-84
2022/03/12 07:12:25;;;;;;;7.27;6.50;;;10.90;50.00;;;;;;5994114;23;20475;-83
2022/03/12 07:14:58;;;;;;;7.67;6.90;;;11.00;50.00;;;;;;6016696;23;20423;-84
2022/03/12 07:17:25;;;;;;;12.73;6.63;;;11.10;50.40;;;;;;5993198;23;20432;-83
2022/03/12 07:19:54;;;;;;;8.83;7.03;;;11.10;50.00;;;;;;6014551;23;20969;-82
2022/03/12 07:22:22;;;;;;;8.23;6.43;;;11.10;50.10;;;;;;6016029;23;20476;-83
2022/03/12 07:24:49;;;;;;;11.07;6.53;;;11.00;50.60;;;;;;5992832;23;20448;-84
2022/03/12 07:27:21;;;;;;;9.33;6.90;;;11.40;50.80;;;;;;5992928;23;20446;-85
2022/03/12 07:29:49;;;;;;;7.37;6.53;;;12.30;50.20;;;;;;6025351;23;20423;-84
2022/03/12 07:32:21;;;;;;;8.93;7.13;;;14.00;48.00;;;;;;6028237;23;20431;-84
2022/03/12 07:34:49;;;;;;;6.97;6.27;;;14.20;46.20;;;;;;5993927;23;20415;-84
2022/03/12 07:37:16;;;;;;;7.30;6.03;;;14.40;46.40;;;;;;6014309;23;20446;-83
2022/03/12 07:39:48;;;;;;;8.10;6.80;;;14.50;46.30;;;;;;5994202;23;20447;-83
2022/03/12 07:42:17;;;;;;;9.83;7.00;;;14.70;45.50;;;;;;5994556;23;20411;-84
2022/03/12 07:44:49;;;;;;;7.63;6.37;;;15.30;45.10;;;;;;6016841;23;20425;-84
2022/03/12 07:47:18;;;;;;;7.37;6.67;;;15.70;44.60;;;;;;5992495;23;20466;-83
2022/03/12 07:49:49;;;;;;;7.80;7.00;;;15.90;43.90;;;;;;5993627;23;20527;-85
2022/03/12 07:52:22;;;;;;;8.47;7.20;;;15.20;44.50;;;;;;5995051;23;20419;-84
2022/03/12 07:54:49;;;;;;;8.93;7.60;;;15.80;44.20;;;;;;5993833;23;20883;-85
2022/03/12 07:57:19;;;;;;;8.60;6.90;;;15.70;44.40;;;;;;5995686;23;20499;-85
2022/03/12 07:59:47;;;;;;;8.97;7.53;;;16.30;45.20;;;;;;6019344;23;20502;-84
2022/03/12 08:02:15;;;;;;;7.77;6.97;;;17.20;43.20;;;;;;5994590;23;20429;-84
2022/03/12 08:04:45;;;;;;;7.80;7.00;;;17.60;42.50;;;;;;6002582;23;20491;-84
2022/03/12 08:07:15;;;;;;;7.67;6.97;;;16.40;42.80;;;;;;6019221;23;20435;-84
2022/03/12 08:09:44;;;;;;;6.73;6.13;;;15.00;44.80;;;;;;5993958;23;20937;-84
2022/03/12 08:12:15;;;;;;;10.70;8.20;;;13.90;46.60;;;;;;6004751;23;20415;-82
2022/03/12 08:14:45;;;;;;;9.00;8.07;;;13.10;48.50;;;;;;6009882;23;20426;-84
2022/03/12 08:17:12;;;;;;;10.87;7.40;;;13.00;49.70;;;;;;6024286;23;20435;-83
2022/03/12 08:19:43;;;;;;;9.17;7.70;;;12.80;50.80;;;;;;6021834;23;20439;-84
2022/03/12 08:22:11;;;;;;;7.77;6.77;;;12.50;51.80;;;;;;5996155;23;20438;-84
2022/03/12 08:24:41;;;;;;;14.67;7.37;;;12.70;52.20;;;;;;6021804;23;20441;-84
2022/03/12 08:27:12;;;;;;;8.10;6.80;;;12.60;52.50;;;;;;6020988;23;20442;-85
2022/03/12 08:29:39;;;;;;;7.97;7.10;;;12.30;53.20;;;;;;6019767;23;20447;-84
2022/03/12 08:32:10;;;;;;;8.10;7.13;;;12.40;53.60;;;;;;5995353;23;20407;-84
2022/03/12 08:34:41;;;;;;;8.00;6.37;;;12.20;53.90;;;;;;6019749;23;20431;-85
2022/03/12 08:37:14;;;;;;;8.63;7.10;;;12.30;55.00;;;;;;6018418;23;20435;-83
2022/03/12 08:39:42;;;;;;;9.57;7.50;;;12.20;55.00;;;;;;5995544;23;20531;-84
2022/03/12 08:42:16;;;;;;;9.40;7.27;;;12.20;55.60;;;;;;5973519;23;20404;-85
2022/03/12 08:44:46;;;;;;;9.60;7.23;;;12.60;55.40;;;;;;5997837;23;20440;-85
2022/03/12 08:47:13;;;;;;;9.60;7.03;;;12.60;55.60;;;;;;5996308;23;20437;-84
2022/03/12 08:49:46;;;;;;;9.10;8.10;;;12.90;55.90;;;;;;5995262;23;21098;-84
2022/03/12 08:52:13;;;;;;;8.20;7.40;;;13.00;56.00;;;;;;5995835;23;20842;-83
2022/03/12 08:54:41;;;;;;;7.33;6.20;;;13.00;56.40;;;;;;5995651;23;20423;-83
2022/03/12 08:57:15;;;;;;;8.80;7.37;;;13.00;56.90;;;;;;6020362;23;20439;-82
2022/03/12 08:59:49;;;;;;;8.20;7.30;;;12.90;56.90;;;;;;6000461;23;20432;-83
2022/03/12 09:02:16;;;;;;;8.00;6.63;;;12.90;57.00;;;;;;6001476;23;20415;-84
2022/03/12 09:04:55;;;;;;;8.50;7.37;;;13.00;57.40;;;;;;6027805;23;20425;-85
2022/03/12 09:07:32;;;;;;;7.53;6.57;;;13.10;57.40;;;;;;6003433;23;20434;-83
2022/03/12 09:10:01;;;;;;;6.30;5.40;;;13.40;57.90;;;;;;6026676;23;20486;-84
2022/03/12 09:12:31;;;;;;;7.03;6.27;;;13.50;62.20;;;;;;6026883;23;20851;-84
2022/03/12 09:15:01;;;;;;;8.13;6.30;;;13.50;63.90;;;;;;6003451;23;20420;-83
2022/03/12 09:17:34;;;;;;;8.63;5.57;;;13.40;65.40;;;;;;6020857;23;20446;-85
2022/03/12 09:20:10;;;;;;;6.50;5.60;;;13.60;65.40;;;;;;5974786;23;20447;-84
2022/03/12 09:22:41;;;;;;;6.80;4.23;;;14.00;65.70;;;;;;5995611;23;20415;-85
2022/03/12 09:25:14;;;;;;;6.00;5.40;;;14.00;65.50;;;;;;5997422;23;20427;-85
2022/03/12 09:27:48;;;;;;;5.63;4.93;;;14.10;65.60;;;;;;5996722;23;20418;-84
2022/03/12 09:30:23;;;;;;;5.73;5.23;;;14.20;65.40;;;;;;5997682;23;20429;-87
2022/03/12 09:33:03;;;;;;;5.83;5.23;;;14.20;65.20;;;;;;5998016;23;20422;-85
2022/03/12 09:35:33;;;;;;;5.50;4.93;;;14.30;65.40;;;;;;6019624;23;20821;-83
2022/03/12 09:38:01;;;;;;;5.97;5.47;;;14.40;65.10;;;;;;6012423;23;20408;-80
2022/03/12 09:40:29;;;;;;;5.20;4.50;;;14.40;65.50;;;;;;6019726;23;21231;-84
2022/03/12 09:42:56;;;;;;;5.70;4.90;;;14.40;65.40;;;;;;6012472;23;20931;-82
2022/03/12 09:45:24;;;;;;;5.30;4.77;;;14.40;65.90;;;;;;5986403;23;20506;-83
2022/03/12 09:47:51;;;;;;;7.43;5.13;;;14.20;66.90;;;;;;6008373;23;20415;-83
2022/03/12 09:50:18;;;;;;;7.47;4.73;;;14.50;66.50;;;;;;5984154;23;20501;-83
2022/03/12 09:52:45;;;;;;;5.30;4.80;;;14.90;65.60;;;;;;5987341;23;20912;-83
2022/03/12 09:55:12;;;;;;;4.97;4.50;;;14.60;65.50;;;;;;5984738;23;20795;-81
2022/03/12 09:57:42;;;;;;;5.23;4.30;;;15.10;65.40;;;;;;5988256;23;20434;-84
2022/03/12 10:00:09;;;;;;;4.77;3.60;;;16.00;62.10;;;;;;6010303;23;20447;-82
2022/03/12 10:02:36;;;;;;;5.03;4.13;;;16.40;59.80;;;;;;5983935;23;20403;-82
2022/03/12 10:05:03;;;;;;;4.07;3.67;;;16.90;58.90;;;;;;5994605;23;20423;-80
2022/03/12 10:07:30;;;;;;;4.90;4.37;;;17.30;57.50;;;;;;6020765;23;20795;-80
2022/03/12 10:09:57;;;;;;;4.20;3.80;;;17.30;57.00;;;;;;6016741;23;20498;-82
2022/03/12 10:12:23;;;;;;;4.43;4.03;;;17.30;56.80;;;;;;6019254;23;20463;-80
2022/03/12 10:14:50;;;;;;;3.47;3.10;;;17.70;56.30;;;;;;6017931;23;20415;-84
2022/03/12 10:17:20;;;;;;;2.77;2.47;;;17.90;55.60;;;;;;5993404;23;20447;-83
2022/03/12 10:19:47;;;;;;;3.03;2.60;;;18.40;54.70;;;;;;6016250;23;20448;-82
2022/03/12 10:22:14;;;;;;;3.30;2.80;;;19.30;52.80;;;;;;6014133;23;20879;-82
2022/03/12 10:24:41;;;;;;;3.77;2.90;;;19.40;51.90;;;;;;6016898;23;20404;-83
2022/03/12 10:27:09;;;;;;;3.20;2.37;;;19.00;51.60;;;;;;6010740;23;20438;-81
2022/03/12 10:29:38;;;;;;;3.00;2.80;;;18.80;52.50;;;;;;6011305;23;20927;-83
2022/03/12 10:32:25;;;;;;;2.80;2.60;;;18.90;52.50;;;;;;5987814;23;20419;-82
2022/03/12 10:34:55;;;;;;;3.70;3.40;;;18.70;52.40;;;;;;5987144;23;20418;-83
2022/03/12 10:37:27;;;;;;;3.40;3.10;;;17.90;53.90;;;;;;6011880;23;20427;-83
2022/03/12 10:40:06;;;;;;;3.47;3.17;;;17.20;55.60;;;;;;6007580;23;20558;-83
2022/03/12 10:42:34;;;;;;;3.50;3.20;;;16.90;56.50;;;;;;6009548;23;20486;-82
2022/03/12 10:45:10;;;;;;;6.80;4.30;;;16.90;57.10;;;;;;6010417;23;20411;-82
2022/03/12 10:47:44;;;;;;;5.10;3.87;;;16.90;57.20;;;;;;6013260;23;20431;-83
2022/03/12 10:50:15;;;;;;;5.07;4.50;;;16.30;58.10;;;;;;6009418;23;20410;-82
2022/03/12 10:52:46;;;;;;;4.50;3.60;;;16.60;58.20;;;;;;6006590;23;20407;-85
2022/03/12 10:55:23;;;;;;;3.20;2.90;;;16.50;58.10;;;;;;6032185;23;20427;-84
2022/03/12 10:58:02;;;;;;;4.77;3.50;;;16.40;58.10;;;;;;6022032;23;20419;-84
2022/03/12 11:00:32;;;;;;;3.53;3.00;;;16.50;58.20;;;;;;6018566;23;20441;-85
2022/03/12 11:03:01;;;;;;;3.83;3.07;;;;;;;;;;6012744;23;20402;-84
2022/03/12 11:05:33;;;;;;;5.73;3.97;;;16.40;58.10;;;;;;6015537;23;20442;-84
2022/03/12 11:08:23;;;;;;;3.90;3.57;;;16.40;58.30;;;;;;6011091;23;20474;-83
2022/03/12 11:11:11;;;;;;;3.63;3.00;;;16.20;58.70;;;;;;6012499;23;21358;-82
2022/03/12 11:13:48;;;;;;;5.10;3.10;;;16.50;58.30;;;;;;5988831;23;20411;-84
2022/03/12 11:16:17;;;;;;;4.43;4.03;;;16.40;58.30;;;;;;6015656;23;20446;-79
2022/03/12 11:19:07;;;;;;;2.83;2.63;;;16.20;58.50;;;;;;5997390;23;20415;-83
2022/03/12 11:21:41;;;;;;;4.50;2.93;;;16.20;59.00;;;;;;5992562;23;20546;-83
2022/03/12 11:24:16;;;;;;;3.70;3.40;;;16.30;58.80;;;;;;6012502;23;20935;-81
2022/03/12 11:26:55;;;;;;;3.73;3.17;;;16.40;58.70;;;;;;6013576;23;20435;-83
2022/03/12 11:29:25;;;;;;;4.80;4.17;;;16.80;58.30;;;;;;6011297;23;20777;-82
2022/03/12 11:32:05;;;;;;;3.60;3.30;;;16.70;58.00;;;;;;6012728;23;20721;-82
2022/03/12 11:34:36;;;;;;;3.30;3.10;;;16.90;57.20;;;;;;5985826;23;20479;-83
2022/03/12 11:37:05;;;;;;;4.83;3.87;;;16.60;57.20;;;;;;6010819;23;20465;-83
2022/03/12 11:39:56;;;;;;;3.23;2.97;;;16.80;57.30;;;;;;6009691;23;20415;-82
2022/03/12 11:42:30;;;;;;;5.23;3.20;;;16.90;57.20;;;;;;6012509;23;20408;-84
2022/03/12 11:44:59;;;;;;;2.83;2.60;;;16.80;56.90;;;;;;6012933;23;20423;-83
2022/03/12 11:47:32;;;;;;;3.13;2.60;;;16.80;57.10;;;;;;5984252;23;20473;-85
2022/03/12 11:50:01;;;;;;;5.20;3.40;;;17.00;56.60;;;;;;5988903;23;20415;-82
2022/03/12 11:52:28;;;;;;;4.50;3.27;;;16.90;56.80;;;;;;5993223;23;20403;-82
2022/03/12 11:54:56;;;;;;;4.00;3.60;;;16.60;57.00;;;;;;6012498;23;20482;-83
2022/03/12 11:57:27;;;;;;;3.80;3.40;;;16.40;57.70;;;;;;6008349;23;20455;-83
2022/03/12 11:59:55;;;;;;;3.13;2.93;;;16.30;58.10;;;;;;5985017;23;20407;-82
2022/03/12 12:02:31;;;;;;;3.50;2.60;;;16.70;57.80;;;;;;6009717;23;20440;-82
2022/03/12 12:05:06;;;;;;;3.07;2.63;;;16.60;57.30;;;;;;6008155;23;20558;-84
2022/03/12 12:07:36;;;;;;;2.63;2.43;;;16.50;57.70;;;;;;6010455;23;20435;-80
2022/03/12 12:10:07;;;;;;;3.33;2.30;;;16.80;57.30;;;;;;6011645;23;20399;-84
2022/03/12 12:12:41;;;;;;;3.43;2.90;;;16.90;56.60;;;;;;6009385;23;20417;-82
2022/03/12 12:15:15;;;;;;;3.07;2.50;;;16.70;56.70;;;;;;5985070;23;20411;-82
2022/03/12 12:17:43;;;;;;;3.10;2.50;;;16.50;56.90;;;;;;6009629;23;20454;-84
2022/03/12 12:20:15;;;;;;;4.13;1.90;;;16.70;57.30;;;;;;6008460;23;20737;-84
2022/03/12 12:22:43;;;;;;;2.83;2.40;;;16.60;56.90;;;;;;6009735;23;20391;-82
2022/03/12 12:25:11;;;;;;;2.50;1.73;;;16.20;57.50;;;;;;6012862;23;20415;-82
2022/03/12 12:27:43;;;;;;;1.90;1.80;;;16.70;57.30;;;;;;6011236;23;20407;-83
2022/03/12 12:30:15;;;;;;;2.23;2.03;;;16.70;56.70;;;;;;6009958;23;20820;-82
2022/03/12 12:32:49;;;;;;;2.40;2.20;;;16.40;57.20;;;;;;5983855;23;21152;-82
2022/03/12 12:35:21;;;;;;;2.37;1.83;;;16.00;57.80;;;;;;6008815;23;20427;-82
2022/03/12 12:37:54;;;;;;;4.33;1.93;;;16.40;57.90;;;;;;6009053;23;20525;-82
2022/03/12 12:40:36;;;;;;;2.80;2.40;;;16.40;57.00;;;;;;6009038;23;20491;-84
2022/03/12 12:43:09;;;;;;;5.10;3.67;;;17.00;56.90;;;;;;5990071;23;20400;-82
2022/03/12 12:45:53;;;;;;;7.53;4.10;;;17.10;56.40;;;;;;6011019;23;20518;-84
2022/03/12 12:48:33;;;;;;;4.70;3.97;;;17.20;56.60;;;;;;6010305;23;21117;-84
2022/03/12 12:51:15;;;;;;;5.70;3.87;;;17.50;55.30;;;;;;6013719;23;20419;-82
2022/03/12 12:53:50;;;;;;;4.70;4.30;;;17.90;54.70;;;;;;5992989;23;20392;-82
2022/03/12 12:56:35;;;;;;;4.53;3.90;;;17.60;54.50;;;;;;6022698;23;20471;-82
2022/03/12 12:59:02;;;;;;;5.17;4.00;;;17.60;54.60;;;;;;5991893;23;20454;-82
2022/03/12 13:01:45;;;;;;;5.50;3.97;;;17.80;54.30;;;;;;6012719;23;20832;-83